sensor_id;sensor_type;location;lat;lon;timestamp;P1;durP1;ratioP1;P2;durP2;ratioP2
53879;SDS011;39791;53.184;5.486;2023-04-23T00:02:01;78.03;;;49.25;;
53879;SDS011;39791;53.184;5.486;2023-04-23T00:04:30;84.10;;;53.40;;
53879;SDS011;39791;53.184;5.486;2023-04-23T00:06:59;87.28;;;49.58;;
53879;SDS011;39791;53.184;5.486;2023-04-23T00:09:26;73.88;;;47.13;;
53879;SDS011;39791;53.184;5.486;2023-04-23T00:11:55;70.03;;;47.45;;
53879;SDS011;39791;53.184;5.486;2023-04-23T00:14:22;69.63;;;47.83;;
53879;SDS011;39791;53.184;5.486;2023-04-23T00:16:47;81.55;;;47.80;;
53879;SDS011;39791;53.184;5.486;2023-04-23T00:19:13;80.05;;;48.40;;
53879;SDS011;39791;53.184;5.486;2023-04-23T00:21:39;75.45;;;48.08;;
53879;SDS011;39791;53.184;5.486;2023-04-23T00:24:04;79.82;;;50.67;;
53879;SDS011;39791;53.184;5.486;2023-04-23T00:26:30;82.53;;;50.40;;
53879;SDS011;39791;53.184;5.486;2023-04-23T00:28:56;77.20;;;49.33;;
53879;SDS011;39791;53.184;5.486;2023-04-23T00:31:21;74.88;;;53.90;;
53879;SDS011;39791;53.184;5.486;2023-04-23T00:33:48;69.82;;;45.67;;
53879;SDS011;39791;53.184;5.486;2023-04-23T00:36:14;73.53;;;45.90;;
53879;SDS011;39791;53.184;5.486;2023-04-23T00:38:39;72.70;;;50.85;;
53879;SDS011;39791;53.184;5.486;2023-04-23T00:41:05;74.72;;;47.70;;
53879;SDS011;39791;53.184;5.486;2023-04-23T00:43:31;73.10;;;50.20;;
53879;SDS011;39791;53.184;5.486;2023-04-23T00:45:58;75.95;;;50.13;;
53879;SDS011;39791;53.184;5.486;2023-04-23T00:48:24;69.28;;;47.00;;
53879;SDS011;39791;53.184;5.486;2023-04-23T00:50:56;75.35;;;48.88;;
53879;SDS011;39791;53.184;5.486;2023-04-23T00:53:24;77.00;;;48.63;;
53879;SDS011;39791;53.184;5.486;2023-04-23T00:55:50;79.40;;;53.40;;
53879;SDS011;39791;53.184;5.486;2023-04-23T00:58:16;79.60;;;49.10;;
53879;SDS011;39791;53.184;5.486;2023-04-23T01:00:43;69.82;;;50.75;;
53879;SDS011;39791;53.184;5.486;2023-04-23T01:03:10;75.22;;;49.15;;
53879;SDS011;39791;53.184;5.486;2023-04-23T01:05:37;76.78;;;51.38;;
53879;SDS011;39791;53.184;5.486;2023-04-23T01:08:05;83.53;;;53.17;;
53879;SDS011;39791;53.184;5.486;2023-04-23T01:10:31;86.03;;;55.03;;
53879;SDS011;39791;53.184;5.486;2023-04-23T01:12:57;84.93;;;57.10;;
53879;SDS011;39791;53.184;5.486;2023-04-23T01:15:23;91.07;;;60.50;;
53879;SDS011;39791;53.184;5.486;2023-04-23T01:17:49;80.03;;;54.90;;
53879;SDS011;39791;53.184;5.486;2023-04-23T01:20:15;94.45;;;57.75;;
53879;SDS011;39791;53.184;5.486;2023-04-23T01:22:41;97.18;;;56.90;;
53879;SDS011;39791;53.184;5.486;2023-04-23T01:25:06;89.22;;;58.15;;
53879;SDS011;39791;53.184;5.486;2023-04-23T01:27:32;84.07;;;54.20;;
53879;SDS011;39791;53.184;5.486;2023-04-23T01:30:00;81.20;;;53.25;;
53879;SDS011;39791;53.184;5.486;2023-04-23T01:32:29;89.28;;;51.53;;
53879;SDS011;39791;53.184;5.486;2023-04-23T01:34:55;81.88;;;49.33;;
53879;SDS011;39791;53.184;5.486;2023-04-23T01:37:22;79.47;;;51.13;;
53879;SDS011;39791;53.184;5.486;2023-04-23T01:39:48;73.10;;;49.47;;
53879;SDS011;39791;53.184;5.486;2023-04-23T01:42:15;72.30;;;48.70;;
53879;SDS011;39791;53.184;5.486;2023-04-23T01:44:41;72.38;;;53.92;;
53879;SDS011;39791;53.184;5.486;2023-04-23T01:47:06;70.05;;;52.60;;
53879;SDS011;39791;53.184;5.486;2023-04-23T01:49:32;80.53;;;49.50;;
53879;SDS011;39791;53.184;5.486;2023-04-23T01:51:58;84.03;;;55.80;;
53879;SDS011;39791;53.184;5.486;2023-04-23T01:54:23;111.20;;;57.72;;
53879;SDS011;39791;53.184;5.486;2023-04-23T01:56:49;94.35;;;56.67;;
53879;SDS011;39791;53.184;5.486;2023-04-23T01:59:18;105.65;;;58.40;;
53879;SDS011;39791;53.184;5.486;2023-04-23T02:01:45;123.35;;;50.58;;
53879;SDS011;39791;53.184;5.486;2023-04-23T02:04:12;148.88;;;55.05;;
53879;SDS011;39791;53.184;5.486;2023-04-23T02:06:39;414.77;;;73.57;;
53879;SDS011;39791;53.184;5.486;2023-04-23T02:09:09;524.97;;;78.50;;
53879;SDS011;39791;53.184;5.486;2023-04-23T02:11:35;589.88;;;82.18;;
53879;SDS011;39791;53.184;5.486;2023-04-23T02:14:04;525.83;;;75.80;;
53879;SDS011;39791;53.184;5.486;2023-04-23T02:16:30;830.45;;;94.65;;
53879;SDS011;39791;53.184;5.486;2023-04-23T02:18:56;304.58;;;47.55;;
53879;SDS011;39791;53.184;5.486;2023-04-23T02:21:23;383.60;;;67.75;;
53879;SDS011;39791;53.184;5.486;2023-04-23T02:23:49;229.45;;;57.60;;
53879;SDS011;39791;53.184;5.486;2023-04-23T02:26:15;326.67;;;63.65;;
53879;SDS011;39791;53.184;5.486;2023-04-23T02:28:41;251.68;;;54.28;;
53879;SDS011;39791;53.184;5.486;2023-04-23T02:31:06;336.33;;;62.47;;
53879;SDS011;39791;53.184;5.486;2023-04-23T02:33:32;437.63;;;60.42;;
53879;SDS011;39791;53.184;5.486;2023-04-23T02:35:58;390.35;;;69.15;;
53879;SDS011;39791;53.184;5.486;2023-04-23T02:38:23;382.30;;;68.25;;
53879;SDS011;39791;53.184;5.486;2023-04-23T02:40:49;361.77;;;85.85;;
53879;SDS011;39791;53.184;5.486;2023-04-23T02:43:14;272.40;;;68.32;;
53879;SDS011;39791;53.184;5.486;2023-04-23T02:45:40;304.67;;;58.45;;
53879;SDS011;39791;53.184;5.486;2023-04-23T02:48:06;386.83;;;75.78;;
53879;SDS011;39791;53.184;5.486;2023-04-23T02:50:31;541.22;;;96.10;;
53879;SDS011;39791;53.184;5.486;2023-04-23T02:52:57;386.60;;;75.25;;
53879;SDS011;39791;53.184;5.486;2023-04-23T02:55:22;386.88;;;80.28;;
53879;SDS011;39791;53.184;5.486;2023-04-23T02:57:49;632.53;;;90.28;;
53879;SDS011;39791;53.184;5.486;2023-04-23T03:00:15;287.80;;;54.92;;
53879;SDS011;39791;53.184;5.486;2023-04-23T03:02:42;480.58;;;75.97;;
53879;SDS011;39791;53.184;5.486;2023-04-23T03:05:07;305.83;;;63.08;;
53879;SDS011;39791;53.184;5.486;2023-04-23T03:07:33;448.35;;;82.70;;
53879;SDS011;39791;53.184;5.486;2023-04-23T03:09:59;498.48;;;82.85;;
53879;SDS011;39791;53.184;5.486;2023-04-23T03:12:24;585.40;;;84.57;;
53879;SDS011;39791;53.184;5.486;2023-04-23T03:14:50;386.55;;;64.70;;
53879;SDS011;39791;53.184;5.486;2023-04-23T03:17:16;394.15;;;70.50;;
53879;SDS011;39791;53.184;5.486;2023-04-23T03:19:41;335.83;;;72.05;;
53879;SDS011;39791;53.184;5.486;2023-04-23T03:22:07;289.30;;;64.63;;
53879;SDS011;39791;53.184;5.486;2023-04-23T03:24:33;313.05;;;79.38;;
53879;SDS011;39791;53.184;5.486;2023-04-23T03:26:59;405.63;;;73.72;;
53879;SDS011;39791;53.184;5.486;2023-04-23T03:29:24;334.33;;;83.03;;
53879;SDS011;39791;53.184;5.486;2023-04-23T03:31:51;401.60;;;91.20;;
53879;SDS011;39791;53.184;5.486;2023-04-23T03:34:16;379.23;;;84.78;;
53879;SDS011;39791;53.184;5.486;2023-04-23T03:36:42;684.08;;;117.93;;
53879;SDS011;39791;53.184;5.486;2023-04-23T03:39:08;707.55;;;122.97;;
53879;SDS011;39791;53.184;5.486;2023-04-23T03:41:34;562.70;;;111.68;;
53879;SDS011;39791;53.184;5.486;2023-04-23T03:44:00;925.30;;;159.50;;
53879;SDS011;39791;53.184;5.486;2023-04-23T03:46:25;416.80;;;104.43;;
53879;SDS011;39791;53.184;5.486;2023-04-23T03:48:51;275.30;;;69.05;;
53879;SDS011;39791;53.184;5.486;2023-04-23T03:51:17;369.25;;;90.45;;
53879;SDS011;39791;53.184;5.486;2023-04-23T03:53:43;312.38;;;102.60;;
53879;SDS011;39791;53.184;5.486;2023-04-23T03:56:10;221.43;;;94.63;;
53879;SDS011;39791;53.184;5.486;2023-04-23T03:58:35;222.13;;;99.88;;
53879;SDS011;39791;53.184;5.486;2023-04-23T04:01:01;215.68;;;90.28;;
53879;SDS011;39791;53.184;5.486;2023-04-23T04:03:26;240.82;;;103.32;;
53879;SDS011;39791;53.184;5.486;2023-04-23T04:05:53;232.38;;;96.50;;
53879;SDS011;39791;53.184;5.486;2023-04-23T04:08:18;197.73;;;91.47;;
53879;SDS011;39791;53.184;5.486;2023-04-23T04:10:44;239.32;;;104.60;;
53879;SDS011;39791;53.184;5.486;2023-04-23T04:13:10;197.20;;;95.72;;
53879;SDS011;39791;53.184;5.486;2023-04-23T04:15:35;160.35;;;82.30;;
53879;SDS011;39791;53.184;5.486;2023-04-23T04:18:01;192.43;;;97.18;;
53879;SDS011;39791;53.184;5.486;2023-04-23T04:20:27;217.10;;;97.43;;
53879;SDS011;39791;53.184;5.486;2023-04-23T04:22:53;192.68;;;96.20;;
53879;SDS011;39791;53.184;5.486;2023-04-23T04:25:19;196.80;;;100.63;;
53879;SDS011;39791;53.184;5.486;2023-04-23T04:27:46;201.55;;;102.80;;
53879;SDS011;39791;53.184;5.486;2023-04-23T04:30:12;216.77;;;109.55;;
53879;SDS011;39791;53.184;5.486;2023-04-23T04:32:38;239.20;;;113.55;;
53879;SDS011;39791;53.184;5.486;2023-04-23T04:35:04;211.73;;;106.32;;
53879;SDS011;39791;53.184;5.486;2023-04-23T04:37:33;258.05;;;113.88;;
53879;SDS011;39791;53.184;5.486;2023-04-23T04:39:59;259.88;;;120.80;;
53879;SDS011;39791;53.184;5.486;2023-04-23T04:42:25;260.67;;;123.00;;
53879;SDS011;39791;53.184;5.486;2023-04-23T04:44:51;224.05;;;111.65;;
53879;SDS011;39791;53.184;5.486;2023-04-23T04:47:17;212.60;;;108.18;;
53879;SDS011;39791;53.184;5.486;2023-04-23T04:49:43;206.75;;;106.85;;
53879;SDS011;39791;53.184;5.486;2023-04-23T04:52:09;212.38;;;111.82;;
53879;SDS011;39791;53.184;5.486;2023-04-23T04:54:35;265.85;;;131.80;;
53879;SDS011;39791;53.184;5.486;2023-04-23T04:57:00;235.23;;;123.45;;
53879;SDS011;39791;53.184;5.486;2023-04-23T04:59:26;212.05;;;111.28;;
53879;SDS011;39791;53.184;5.486;2023-04-23T05:01:52;239.57;;;129.32;;
53879;SDS011;39791;53.184;5.486;2023-04-23T05:04:17;223.45;;;128.68;;
53879;SDS011;39791;53.184;5.486;2023-04-23T05:06:43;174.20;;;103.90;;
53879;SDS011;39791;53.184;5.486;2023-04-23T05:09:09;213.27;;;111.43;;
53879;SDS011;39791;53.184;5.486;2023-04-23T05:11:35;207.13;;;109.70;;
53879;SDS011;39791;53.184;5.486;2023-04-23T05:14:01;203.48;;;106.78;;
53879;SDS011;39791;53.184;5.486;2023-04-23T05:16:28;198.05;;;110.53;;
53879;SDS011;39791;53.184;5.486;2023-04-23T05:18:54;182.45;;;102.55;;
53879;SDS011;39791;53.184;5.486;2023-04-23T05:21:19;209.48;;;126.40;;
53879;SDS011;39791;53.184;5.486;2023-04-23T05:23:45;212.38;;;122.13;;
53879;SDS011;39791;53.184;5.486;2023-04-23T05:26:10;201.98;;;111.78;;
53879;SDS011;39791;53.184;5.486;2023-04-23T05:28:36;189.73;;;112.25;;
53879;SDS011;39791;53.184;5.486;2023-04-23T05:31:02;190.60;;;115.15;;
53879;SDS011;39791;53.184;5.486;2023-04-23T05:33:27;183.30;;;108.65;;
53879;SDS011;39791;53.184;5.486;2023-04-23T05:35:53;170.43;;;99.85;;
53879;SDS011;39791;53.184;5.486;2023-04-23T05:38:19;162.27;;;104.22;;
53879;SDS011;39791;53.184;5.486;2023-04-23T05:40:44;154.60;;;102.75;;
53879;SDS011;39791;53.184;5.486;2023-04-23T05:43:10;142.00;;;91.75;;
53879;SDS011;39791;53.184;5.486;2023-04-23T05:45:36;142.85;;;90.78;;
53879;SDS011;39791;53.184;5.486;2023-04-23T05:48:02;163.45;;;101.90;;
53879;SDS011;39791;53.184;5.486;2023-04-23T05:50:27;173.52;;;106.88;;
53879;SDS011;39791;53.184;5.486;2023-04-23T05:52:53;158.88;;;98.32;;
53879;SDS011;39791;53.184;5.486;2023-04-23T05:55:19;152.93;;;93.80;;
53879;SDS011;39791;53.184;5.486;2023-04-23T05:57:45;138.75;;;91.88;;
53879;SDS011;39791;53.184;5.486;2023-04-23T06:00:11;170.60;;;103.40;;
53879;SDS011;39791;53.184;5.486;2023-04-23T06:02:38;143.80;;;96.18;;
53879;SDS011;39791;53.184;5.486;2023-04-23T06:05:04;159.30;;;108.53;;
53879;SDS011;39791;53.184;5.486;2023-04-23T06:07:30;136.88;;;87.22;;
53879;SDS011;39791;53.184;5.486;2023-04-23T06:09:56;159.60;;;105.63;;
53879;SDS011;39791;53.184;5.486;2023-04-23T06:12:22;170.48;;;118.68;;
53879;SDS011;39791;53.184;5.486;2023-04-23T06:14:48;148.00;;;94.53;;
53879;SDS011;39791;53.184;5.486;2023-04-23T06:17:13;153.95;;;99.13;;
53879;SDS011;39791;53.184;5.486;2023-04-23T06:19:39;152.80;;;103.50;;
53879;SDS011;39791;53.184;5.486;2023-04-23T06:22:05;153.57;;;101.13;;
53879;SDS011;39791;53.184;5.486;2023-04-23T06:24:31;147.13;;;103.78;;
53879;SDS011;39791;53.184;5.486;2023-04-23T06:26:56;143.60;;;99.55;;
53879;SDS011;39791;53.184;5.486;2023-04-23T06:29:22;143.60;;;100.63;;
53879;SDS011;39791;53.184;5.486;2023-04-23T06:31:48;131.05;;;85.88;;
53879;SDS011;39791;53.184;5.486;2023-04-23T06:34:13;128.50;;;93.78;;
53879;SDS011;39791;53.184;5.486;2023-04-23T06:36:39;148.13;;;95.63;;
53879;SDS011;39791;53.184;5.486;2023-04-23T06:39:05;149.57;;;97.75;;
53879;SDS011;39791;53.184;5.486;2023-04-23T06:41:30;143.45;;;99.90;;
53879;SDS011;39791;53.184;5.486;2023-04-23T06:43:56;165.77;;;104.57;;
53879;SDS011;39791;53.184;5.486;2023-04-23T06:46:22;142.35;;;96.10;;
53879;SDS011;39791;53.184;5.486;2023-04-23T06:48:47;178.63;;;127.28;;
53879;SDS011;39791;53.184;5.486;2023-04-23T06:51:13;145.43;;;97.47;;
53879;SDS011;39791;53.184;5.486;2023-04-23T06:53:39;157.68;;;111.95;;
53879;SDS011;39791;53.184;5.486;2023-04-23T06:56:04;146.88;;;98.47;;
53879;SDS011;39791;53.184;5.486;2023-04-23T06:58:30;156.82;;;110.13;;
53879;SDS011;39791;53.184;5.486;2023-04-23T07:00:59;145.30;;;103.40;;
53879;SDS011;39791;53.184;5.486;2023-04-23T07:03:28;153.43;;;109.28;;
53879;SDS011;39791;53.184;5.486;2023-04-23T07:05:54;222.15;;;160.75;;
53879;SDS011;39791;53.184;5.486;2023-04-23T07:08:23;155.43;;;113.65;;
53879;SDS011;39791;53.184;5.486;2023-04-23T07:10:49;136.80;;;102.90;;
53879;SDS011;39791;53.184;5.486;2023-04-23T07:13:15;153.65;;;116.60;;
53879;SDS011;39791;53.184;5.486;2023-04-23T07:15:41;160.75;;;119.28;;
53879;SDS011;39791;53.184;5.486;2023-04-23T07:18:07;133.50;;;105.70;;
53879;SDS011;39791;53.184;5.486;2023-04-23T07:20:33;136.05;;;105.38;;
53879;SDS011;39791;53.184;5.486;2023-04-23T07:22:59;150.98;;;118.43;;
53879;SDS011;39791;53.184;5.486;2023-04-23T07:25:25;139.55;;;114.10;;
53879;SDS011;39791;53.184;5.486;2023-04-23T07:27:51;130.52;;;99.57;;
53879;SDS011;39791;53.184;5.486;2023-04-23T07:30:18;111.30;;;90.53;;
53879;SDS011;39791;53.184;5.486;2023-04-23T07:32:44;127.85;;;101.13;;
53879;SDS011;39791;53.184;5.486;2023-04-23T07:35:10;125.25;;;99.88;;
53879;SDS011;39791;53.184;5.486;2023-04-23T07:37:36;148.35;;;113.03;;
53879;SDS011;39791;53.184;5.486;2023-04-23T07:40:02;119.57;;;96.18;;
53879;SDS011;39791;53.184;5.486;2023-04-23T07:42:29;111.88;;;89.07;;
53879;SDS011;39791;53.184;5.486;2023-04-23T07:44:55;102.32;;;82.07;;
53879;SDS011;39791;53.184;5.486;2023-04-23T07:47:21;117.40;;;95.35;;
53879;SDS011;39791;53.184;5.486;2023-04-23T07:49:47;107.75;;;87.30;;
53879;SDS011;39791;53.184;5.486;2023-04-23T07:52:12;89.28;;;75.82;;
53879;SDS011;39791;53.184;5.486;2023-04-23T07:54:42;78.28;;;65.93;;
53879;SDS011;39791;53.184;5.486;2023-04-23T07:57:07;81.65;;;69.90;;
53879;SDS011;39791;53.184;5.486;2023-04-23T07:59:34;68.20;;;60.15;;
53879;SDS011;39791;53.184;5.486;2023-04-23T08:02:00;59.80;;;51.75;;
53879;SDS011;39791;53.184;5.486;2023-04-23T08:04:25;77.68;;;66.03;;
53879;SDS011;39791;53.184;5.486;2023-04-23T08:06:51;76.65;;;68.28;;
53879;SDS011;39791;53.184;5.486;2023-04-23T08:09:16;81.20;;;68.47;;
53879;SDS011;39791;53.184;5.486;2023-04-23T08:11:42;58.55;;;52.10;;
53879;SDS011;39791;53.184;5.486;2023-04-23T08:14:08;70.95;;;63.35;;
53879;SDS011;39791;53.184;5.486;2023-04-23T08:16:33;46.45;;;40.30;;
53879;SDS011;39791;53.184;5.486;2023-04-23T08:18:59;58.05;;;51.78;;
53879;SDS011;39791;53.184;5.486;2023-04-23T08:21:25;48.40;;;41.70;;
53879;SDS011;39791;53.184;5.486;2023-04-23T08:23:51;50.13;;;44.40;;
53879;SDS011;39791;53.184;5.486;2023-04-23T08:26:17;51.42;;;44.92;;
53879;SDS011;39791;53.184;5.486;2023-04-23T08:28:43;47.50;;;40.78;;
53879;SDS011;39791;53.184;5.486;2023-04-23T08:31:09;47.78;;;40.60;;
53879;SDS011;39791;53.184;5.486;2023-04-23T08:33:35;51.92;;;46.33;;
53879;SDS011;39791;53.184;5.486;2023-04-23T08:36:01;56.60;;;50.55;;
53879;SDS011;39791;53.184;5.486;2023-04-23T08:38:26;42.33;;;37.85;;
53879;SDS011;39791;53.184;5.486;2023-04-23T08:40:55;55.58;;;46.05;;
53879;SDS011;39791;53.184;5.486;2023-04-23T08:43:23;43.80;;;35.55;;
53879;SDS011;39791;53.184;5.486;2023-04-23T08:46:01;42.42;;;36.88;;
53879;SDS011;39791;53.184;5.486;2023-04-23T08:48:30;45.20;;;37.15;;
53879;SDS011;39791;53.184;5.486;2023-04-23T08:50:58;37.55;;;33.05;;
53879;SDS011;39791;53.184;5.486;2023-04-23T08:53:26;50.38;;;40.53;;
53879;SDS011;39791;53.184;5.486;2023-04-23T08:55:53;45.88;;;41.15;;
53879;SDS011;39791;53.184;5.486;2023-04-23T08:58:20;46.00;;;40.97;;
53879;SDS011;39791;53.184;5.486;2023-04-23T09:00:47;42.13;;;34.78;;
53879;SDS011;39791;53.184;5.486;2023-04-23T09:03:15;38.25;;;34.15;;
53879;SDS011;39791;53.184;5.486;2023-04-23T09:05:41;44.58;;;39.80;;
53879;SDS011;39791;53.184;5.486;2023-04-23T09:08:08;46.38;;;41.45;;
53879;SDS011;39791;53.184;5.486;2023-04-23T09:10:35;46.47;;;41.63;;
53879;SDS011;39791;53.184;5.486;2023-04-23T09:13:03;46.13;;;39.53;;
53879;SDS011;39791;53.184;5.486;2023-04-23T09:15:28;44.13;;;39.38;;
53879;SDS011;39791;53.184;5.486;2023-04-23T09:17:55;45.95;;;41.03;;
53879;SDS011;39791;53.184;5.486;2023-04-23T09:20:22;36.05;;;32.05;;
53879;SDS011;39791;53.184;5.486;2023-04-23T09:22:48;50.75;;;45.58;;
53879;SDS011;39791;53.184;5.486;2023-04-23T09:25:15;37.13;;;31.23;;
53879;SDS011;39791;53.184;5.486;2023-04-23T09:27:46;45.10;;;40.42;;
53879;SDS011;39791;53.184;5.486;2023-04-23T09:30:14;69.57;;;59.22;;
53879;SDS011;39791;53.184;5.486;2023-04-23T09:32:40;60.75;;;52.55;;
53879;SDS011;39791;53.184;5.486;2023-04-23T09:35:08;50.55;;;45.08;;
53879;SDS011;39791;53.184;5.486;2023-04-23T09:37:35;57.38;;;51.15;;
53879;SDS011;39791;53.184;5.486;2023-04-23T09:40:02;46.55;;;41.67;;
53879;SDS011;39791;53.184;5.486;2023-04-23T09:42:32;48.50;;;43.55;;
53879;SDS011;39791;53.184;5.486;2023-04-23T09:45:01;42.17;;;35.45;;
53879;SDS011;39791;53.184;5.486;2023-04-23T09:47:37;41.35;;;36.97;;
53879;SDS011;39791;53.184;5.486;2023-04-23T09:50:04;49.60;;;44.08;;
53879;SDS011;39791;53.184;5.486;2023-04-23T09:52:30;42.10;;;37.55;;
53879;SDS011;39791;53.184;5.486;2023-04-23T09:54:57;33.47;;;29.65;;
53879;SDS011;39791;53.184;5.486;2023-04-23T09:57:26;40.38;;;36.10;;
53879;SDS011;39791;53.184;5.486;2023-04-23T09:59:52;30.70;;;27.50;;
53879;SDS011;39791;53.184;5.486;2023-04-23T10:02:25;34.33;;;30.55;;
53879;SDS011;39791;53.184;5.486;2023-04-23T10:04:51;40.00;;;31.92;;
53879;SDS011;39791;53.184;5.486;2023-04-23T10:07:17;36.15;;;31.67;;
53879;SDS011;39791;53.184;5.486;2023-04-23T10:09:44;30.73;;;27.55;;
53879;SDS011;39791;53.184;5.486;2023-04-23T10:12:10;55.70;;;49.90;;
53879;SDS011;39791;53.184;5.486;2023-04-23T10:14:37;38.30;;;34.25;;
53879;SDS011;39791;53.184;5.486;2023-04-23T10:17:03;33.03;;;29.67;;
53879;SDS011;39791;53.184;5.486;2023-04-23T10:19:30;35.78;;;32.13;;
53879;SDS011;39791;53.184;5.486;2023-04-23T10:21:57;32.28;;;28.30;;
53879;SDS011;39791;53.184;5.486;2023-04-23T10:24:28;39.35;;;33.63;;
53879;SDS011;39791;53.184;5.486;2023-04-23T10:27:01;32.50;;;28.70;;
53879;SDS011;39791;53.184;5.486;2023-04-23T10:29:29;35.47;;;30.38;;
53879;SDS011;39791;53.184;5.486;2023-04-23T10:31:57;37.28;;;33.50;;
53879;SDS011;39791;53.184;5.486;2023-04-23T10:34:25;28.90;;;25.80;;
53879;SDS011;39791;53.184;5.486;2023-04-23T10:36:51;30.60;;;25.85;;
53879;SDS011;39791;53.184;5.486;2023-04-23T10:39:22;35.33;;;31.60;;
53879;SDS011;39791;53.184;5.486;2023-04-23T10:42:07;30.48;;;27.30;;
53879;SDS011;39791;53.184;5.486;2023-04-23T10:44:37;33.88;;;29.23;;
53879;SDS011;39791;53.184;5.486;2023-04-23T10:47:04;36.45;;;32.65;;
53879;SDS011;39791;53.184;5.486;2023-04-23T10:49:33;33.08;;;29.20;;
53879;SDS011;39791;53.184;5.486;2023-04-23T10:52:03;26.25;;;23.42;;
53879;SDS011;39791;53.184;5.486;2023-04-23T10:54:33;37.13;;;33.03;;
53879;SDS011;39791;53.184;5.486;2023-04-23T10:57:03;29.73;;;26.45;;
53879;SDS011;39791;53.184;5.486;2023-04-23T10:59:30;27.83;;;24.92;;
53879;SDS011;39791;53.184;5.486;2023-04-23T11:02:19;24.65;;;22.02;;
53879;SDS011;39791;53.184;5.486;2023-04-23T11:04:44;33.88;;;30.38;;
53879;SDS011;39791;53.184;5.486;2023-04-23T11:07:29;30.08;;;26.95;;
53879;SDS011;39791;53.184;5.486;2023-04-23T11:10:00;32.35;;;28.95;;
53879;SDS011;39791;53.184;5.486;2023-04-23T11:12:38;34.80;;;29.70;;
53879;SDS011;39791;53.184;5.486;2023-04-23T11:15:14;35.28;;;31.58;;
53879;SDS011;39791;53.184;5.486;2023-04-23T11:20:22;44.53;;;39.58;;
53879;SDS011;39791;53.184;5.486;2023-04-23T11:22:49;29.60;;;26.27;;
53879;SDS011;39791;53.184;5.486;2023-04-23T11:25:33;29.00;;;26.08;;
53879;SDS011;39791;53.184;5.486;2023-04-23T11:28:00;29.30;;;23.63;;
53879;SDS011;39791;53.184;5.486;2023-04-23T11:30:26;32.42;;;21.60;;
53879;SDS011;39791;53.184;5.486;2023-04-23T11:32:54;27.45;;;24.55;;
53879;SDS011;39791;53.184;5.486;2023-04-23T11:35:21;26.95;;;24.23;;
53879;SDS011;39791;53.184;5.486;2023-04-23T11:37:52;31.52;;;26.00;;
53879;SDS011;39791;53.184;5.486;2023-04-23T11:40:18;22.92;;;20.10;;
53879;SDS011;39791;53.184;5.486;2023-04-23T11:42:47;27.60;;;23.85;;
53879;SDS011;39791;53.184;5.486;2023-04-23T11:45:22;23.52;;;20.98;;
53879;SDS011;39791;53.184;5.486;2023-04-23T11:47:50;22.98;;;20.42;;
53879;SDS011;39791;53.184;5.486;2023-04-23T11:50:20;21.65;;;13.23;;
53879;SDS011;39791;53.184;5.486;2023-04-23T11:52:50;22.02;;;17.35;;
53879;SDS011;39791;53.184;5.486;2023-04-23T11:55:19;21.63;;;13.80;;
53879;SDS011;39791;53.184;5.486;2023-04-23T11:57:47;27.73;;;23.23;;
53879;SDS011;39791;53.184;5.486;2023-04-23T12:00:15;19.50;;;14.35;;
53879;SDS011;39791;53.184;5.486;2023-04-23T12:02:59;18.33;;;15.35;;
53879;SDS011;39791;53.184;5.486;2023-04-23T12:05:32;19.15;;;17.17;;
53879;SDS011;39791;53.184;5.486;2023-04-23T12:08:16;29.63;;;26.50;;
53879;SDS011;39791;53.184;5.486;2023-04-23T12:10:47;25.98;;;23.25;;
53879;SDS011;39791;53.184;5.486;2023-04-23T12:13:18;20.27;;;18.27;;
53879;SDS011;39791;53.184;5.486;2023-04-23T12:15:49;22.73;;;18.20;;
53879;SDS011;39791;53.184;5.486;2023-04-23T12:18:17;23.80;;;19.80;;
53879;SDS011;39791;53.184;5.486;2023-04-23T12:20:43;22.13;;;19.52;;
53879;SDS011;39791;53.184;5.486;2023-04-23T12:23:10;27.35;;;21.80;;
53879;SDS011;39791;53.184;5.486;2023-04-23T12:25:36;26.45;;;23.73;;
53879;SDS011;39791;53.184;5.486;2023-04-23T12:28:05;20.45;;;18.50;;
53879;SDS011;39791;53.184;5.486;2023-04-23T12:30:31;26.67;;;23.88;;
53879;SDS011;39791;53.184;5.486;2023-04-23T12:33:01;30.02;;;26.98;;
53879;SDS011;39791;53.184;5.486;2023-04-23T12:36:14;22.92;;;20.13;;
53879;SDS011;39791;53.184;5.486;2023-04-23T12:38:21;19.95;;;16.80;;
53879;SDS011;39791;53.184;5.486;2023-04-23T12:40:47;25.42;;;22.92;;
53879;SDS011;39791;53.184;5.486;2023-04-23T12:43:13;22.10;;;16.45;;
53879;SDS011;39791;53.184;5.486;2023-04-23T12:45:39;27.10;;;22.00;;
53879;SDS011;39791;53.184;5.486;2023-04-23T12:48:04;23.40;;;20.88;;
53879;SDS011;39791;53.184;5.486;2023-04-23T12:50:30;16.42;;;14.93;;
53879;SDS011;39791;53.184;5.486;2023-04-23T12:52:56;23.33;;;17.58;;
53879;SDS011;39791;53.184;5.486;2023-04-23T12:55:21;17.85;;;14.35;;
53879;SDS011;39791;53.184;5.486;2023-04-23T12:57:47;30.15;;;25.25;;
53879;SDS011;39791;53.184;5.486;2023-04-23T13:00:12;27.45;;;23.50;;
53879;SDS011;39791;53.184;5.486;2023-04-23T13:02:38;23.90;;;19.65;;
53879;SDS011;39791;53.184;5.486;2023-04-23T13:05:04;25.05;;;21.52;;
53879;SDS011;39791;53.184;5.486;2023-04-23T13:07:30;24.13;;;18.08;;
53879;SDS011;39791;53.184;5.486;2023-04-23T13:09:56;25.73;;;20.27;;
53879;SDS011;39791;53.184;5.486;2023-04-23T13:12:23;22.40;;;19.75;;
53879;SDS011;39791;53.184;5.486;2023-04-23T13:14:49;25.33;;;19.35;;
53879;SDS011;39791;53.184;5.486;2023-04-23T13:17:14;19.58;;;16.55;;
53879;SDS011;39791;53.184;5.486;2023-04-23T13:19:40;21.20;;;19.02;;
53879;SDS011;39791;53.184;5.486;2023-04-23T13:22:06;24.75;;;22.15;;
53879;SDS011;39791;53.184;5.486;2023-04-23T13:24:32;31.33;;;28.02;;
53879;SDS011;39791;53.184;5.486;2023-04-23T13:26:57;17.52;;;15.88;;
53879;SDS011;39791;53.184;5.486;2023-04-23T13:29:23;28.77;;;25.88;;
53879;SDS011;39791;53.184;5.486;2023-04-23T13:31:51;22.52;;;20.17;;
53879;SDS011;39791;53.184;5.486;2023-04-23T13:34:17;28.33;;;25.52;;
53879;SDS011;39791;53.184;5.486;2023-04-23T13:36:43;17.95;;;14.73;;
53879;SDS011;39791;53.184;5.486;2023-04-23T13:39:08;18.63;;;14.50;;
53879;SDS011;39791;53.184;5.486;2023-04-23T13:41:37;18.65;;;16.70;;
53879;SDS011;39791;53.184;5.486;2023-04-23T13:44:02;26.60;;;23.80;;
53879;SDS011;39791;53.184;5.486;2023-04-23T13:46:28;19.13;;;17.27;;
53879;SDS011;39791;53.184;5.486;2023-04-23T13:48:53;25.52;;;17.45;;
53879;SDS011;39791;53.184;5.486;2023-04-23T13:51:20;20.05;;;17.92;;
53879;SDS011;39791;53.184;5.486;2023-04-23T13:53:45;26.30;;;20.65;;
53879;SDS011;39791;53.184;5.486;2023-04-23T13:56:11;17.20;;;14.10;;
53879;SDS011;39791;53.184;5.486;2023-04-23T13:58:37;17.08;;;14.85;;
53879;SDS011;39791;53.184;5.486;2023-04-23T14:01:06;23.70;;;21.33;;
53879;SDS011;39791;53.184;5.486;2023-04-23T14:03:32;23.45;;;21.10;;
53879;SDS011;39791;53.184;5.486;2023-04-23T14:05:58;21.15;;;18.65;;
53879;SDS011;39791;53.184;5.486;2023-04-23T14:08:23;19.35;;;14.88;;
53879;SDS011;39791;53.184;5.486;2023-04-23T14:10:49;21.25;;;18.83;;
53879;SDS011;39791;53.184;5.486;2023-04-23T14:13:15;25.02;;;18.73;;
53879;SDS011;39791;53.184;5.486;2023-04-23T14:15:40;18.48;;;16.58;;